Time;durP1;ratioP1;P1;durP2;ratioP2;P2;SDS_P1;SDS_P2;PMS_P1;PMS_P2;Temp;Humidity;BMP_temperature;BMP_pressure;BME280_temperature;BME280_humidity;BME280_pressure;Samples;Min_cycle;Max_cycle;Signal;HPM_P1;HPM_P2
2023/01/22 00:00:55;;;;;;;20.70;14.18;;;1.00;99.90;;;;;;6321564;28;20048;-78
2023/01/22 00:03:56;;;;;;;22.95;13.90;;;1.00;99.90;;;;;;6321155;27;20485;-79
2023/01/22 00:06:59;;;;;;;19.48;12.48;;;1.00;99.90;;;;;;6320655;28;20052;-79
2023/01/22 00:10:01;;;;;;;21.95;11.65;;;1.10;99.90;;;;;;6320705;28;20417;-79
2023/01/22 00:13:03;;;;;;;20.33;11.73;;;1.10;99.90;;;;;;6321049;28;20517;-79
2023/01/22 00:16:05;;;;;;;24.48;13.80;;;1.10;99.90;;;;;;6320679;28;20429;-79
2023/01/22 00:19:07;;;;;;;24.55;12.93;;;1.10;99.90;;;;;;6322179;28;20051;-79
2023/01/22 00:22:11;;;;;;;22.17;13.35;;;1.10;99.90;;;;;;6321488;28;20517;-79
2023/01/22 00:25:12;;;;;;;20.42;11.80;;;1.10;99.90;;;;;;6323638;28;20051;-79
2023/01/22 00:28:15;;;;;;;24.23;13.35;;;1.10;99.90;;;;;;6326761;28;20044;-78
2023/01/22 00:31:17;;;;;;;19.27;11.52;;;1.10;99.90;;;;;;6327162;28;20129;-79
2023/01/22 00:34:19;;;;;;;19.23;11.45;;;1.10;99.90;;;;;;6326434;28;20059;-79
2023/01/22 00:37:22;;;;;;;29.85;14.25;;;1.10;99.90;;;;;;6327237;28;20048;-79
2023/01/22 00:40:24;;;;;;;22.45;12.23;;;1.10;99.90;;;;;;6326509;28;20535;-78
2023/01/22 00:43:25;;;;;;;27.23;13.65;;;1.10;99.90;;;;;;6325959;28;20051;-78
2023/01/22 00:46:27;;;;;;;22.33;12.90;;;1.10;99.90;;;;;;6325875;28;20047;-78
2023/01/22 00:49:29;;;;;;;23.85;12.27;;;1.10;99.90;;;;;;6325144;28;20051;-78
2023/01/22 00:52:32;;;;;;;20.98;13.38;;;1.10;99.90;;;;;;6321848;28;20051;-78
2023/01/22 00:55:34;;;;;;;21.48;12.73;;;1.10;99.90;;;;;;6321365;28;20059;-79
2023/01/22 00:58:35;;;;;;;22.33;12.98;;;1.20;99.90;;;;;;6324834;28;20417;-78
2023/01/22 01:01:38;;;;;;;18.95;12.40;;;1.10;99.90;;;;;;6325575;28;20055;-78
2023/01/22 01:04:40;;;;;;;17.60;12.20;;;1.10;99.90;;;;;;6325944;28;20093;-78
2023/01/22 01:07:43;;;;;;;17.30;12.60;;;1.20;99.90;;;;;;6324705;28;20055;-79
2023/01/22 01:10:44;;;;;;;25.83;14.50;;;1.20;99.90;;;;;;6325567;28;20055;-79
2023/01/22 01:13:46;;;;;;;21.33;14.52;;;1.20;99.90;;;;;;6327939;28;20040;-80
2023/01/22 01:16:50;;;;;;;22.25;12.80;;;1.20;99.90;;;;;;6325893;28;20048;-78
2023/01/22 01:19:51;;;;;;;20.67;12.65;;;1.20;99.90;;;;;;6324659;28;20044;-79
2023/01/22 01:22:54;;;;;;;19.83;13.00;;;1.20;99.90;;;;;;6316554;28;20048;-79
2023/01/22 01:25:56;;;;;;;21.75;11.48;;;1.20;99.90;;;;;;6325461;28;20048;-79
2023/01/22 01:28:58;;;;;;;22.00;12.63;;;1.20;99.90;;;;;;6324002;28;20051;-79
2023/01/22 01:32:00;;;;;;;23.10;13.15;;;1.20;99.90;;;;;;6324782;28;20048;-78
2023/01/22 01:35:01;;;;;;;20.60;11.25;;;1.20;99.90;;;;;;6323795;28;20527;-78
2023/01/22 01:38:05;;;;;;;21.42;12.85;;;1.20;99.90;;;;;;6323400;28;20051;-78
2023/01/22 01:41:08;;;;;;;18.17;11.68;;;1.20;99.90;;;;;;6323624;28;20048;-79
2023/01/22 01:44:12;;;;;;;20.83;12.57;;;1.20;99.90;;;;;;6325117;28;20048;-79
2023/01/22 01:47:29;;;;;;;20.75;12.02;;;1.20;99.90;;;;;;6306163;28;20044;-79
2023/01/22 01:50:31;;;;;;;20.98;13.45;;;1.20;99.90;;;;;;6313559;28;20040;-80
2023/01/22 01:53:35;;;;;;;23.20;14.38;;;1.20;99.90;;;;;;6318683;28;20211;-79
2023/01/22 01:56:41;;;;;;;24.55;13.05;;;1.20;99.90;;;;;;6308130;28;20044;-79
2023/01/22 01:59:45;;;;;;;23.48;13.23;;;1.20;99.90;;;;;;6323346;28;20047;-78
2023/01/22 02:02:48;;;;;;;24.35;13.57;;;1.20;99.90;;;;;;6323536;28;20048;-79
2023/01/22 02:05:49;;;;;;;23.00;12.13;;;1.20;99.90;;;;;;6324374;28;20504;-79
2023/01/22 02:08:53;;;;;;;23.77;16.05;;;1.20;99.90;;;;;;6322602;28;20525;-79
2023/01/22 02:11:55;;;;;;;30.13;14.32;;;1.10;99.90;;;;;;6323800;28;20044;-78
2023/01/22 02:14:58;;;;;;;21.08;14.13;;;1.10;99.90;;;;;;6323990;28;20047;-78
2023/01/22 02:17:59;;;;;;;24.58;14.35;;;1.10;99.90;;;;;;6324008;28;20055;-79
2023/01/22 02:21:02;;;;;;;27.30;14.68;;;1.10;99.90;;;;;;6323852;28;20048;-78
2023/01/22 02:24:06;;;;;;;26.05;14.13;;;1.20;99.90;;;;;;6324460;28;20051;-79
2023/01/22 02:27:08;;;;;;;25.25;15.80;;;1.20;99.90;;;;;;6324093;28;20048;-79
2023/01/22 02:30:11;;;;;;;22.90;14.55;;;1.20;99.90;;;;;;6324292;28;20056;-78
2023/01/22 02:33:12;;;;;;;25.98;13.40;;;1.20;99.90;;;;;;6323888;28;20366;-79
2023/01/22 02:36:16;;;;;;;30.13;15.82;;;1.20;99.90;;;;;;6322884;28;20217;-79
2023/01/22 02:39:17;;;;;;;30.20;15.48;;;1.20;99.90;;;;;;6322532;28;20528;-78
2023/01/22 02:42:19;;;;;;;34.08;16.70;;;1.20;99.90;;;;;;6322999;28;20409;-79
2023/01/22 02:45:21;;;;;;;25.10;14.80;;;1.30;99.90;;;;;;6323688;28;20410;-79
2023/01/22 02:48:22;;;;;;;24.63;14.75;;;1.30;99.90;;;;;;6322284;28;20642;-78
2023/01/22 02:51:26;;;;;;;23.70;16.20;;;1.30;99.90;;;;;;6323335;28;20048;-78
2023/01/22 02:54:27;;;;;;;29.23;16.98;;;1.30;99.90;;;;;;6322706;28;20401;-79
2023/01/22 02:57:30;;;;;;;27.05;15.80;;;1.30;99.90;;;;;;6301993;28;20414;-79
2023/01/22 03:00:32;;;;;;;21.55;15.27;;;1.30;99.90;;;;;;6298176;28;20502;-80
2023/01/22 03:03:33;;;;;;;26.40;17.27;;;1.30;99.90;;;;;;6297724;28;20044;-79
2023/01/22 03:06:37;;;;;;;22.45;15.35;;;1.30;99.90;;;;;;6297674;28;20048;-79
2023/01/22 03:09:39;;;;;;;27.33;17.08;;;1.30;99.90;;;;;;6296721;28;20048;-79
2023/01/22 03:22:44;;;;;;;28.20;16.95;;;1.40;99.90;;;;;;6296978;28;20040;-78
2023/01/22 03:25:46;;;;;;;28.50;16.30;;;1.40;99.90;;;;;;6297413;28;20063;-79
2023/01/22 03:28:48;;;;;;;29.35;17.25;;;1.40;99.90;;;;;;6295823;28;20052;-78
2023/01/22 03:31:50;;;;;;;26.90;16.25;;;1.40;99.90;;;;;;6297148;28;20048;-79
2023/01/22 03:34:52;;;;;;;24.35;16.33;;;1.40;99.90;;;;;;6296780;28;20055;-79
2023/01/22 03:37:55;;;;;;;29.08;16.77;;;1.40;99.90;;;;;;6295915;28;20498;-79
2023/01/22 03:41:05;;;;;;;26.90;16.05;;;1.40;99.90;;;;;;6296140;28;20525;-79
2023/01/22 03:44:10;;;;;;;30.75;16.83;;;1.40;99.90;;;;;;6296684;28;20044;-79
2023/01/22 03:47:12;;;;;;;30.90;15.93;;;1.40;99.90;;;;;;6303803;28;20044;-81
2023/01/22 03:50:13;;;;;;;25.45;15.55;;;1.40;99.90;;;;;;6346888;28;20054;-79
2023/01/22 03:53:16;;;;;;;23.15;15.13;;;1.40;99.90;;;;;;6323085;28;20690;-77
2023/01/22 03:56:20;;;;;;;25.67;14.90;;;1.40;99.90;;;;;;6303297;28;20585;-78
2023/01/22 03:59:22;;;;;;;24.67;16.38;;;1.40;99.90;;;;;;6317914;28;20048;-78
2023/01/22 04:02:24;;;;;;;27.98;15.88;;;1.40;99.90;;;;;;6321453;28;20052;-78
2023/01/22 04:05:25;;;;;;;28.13;16.73;;;1.40;99.90;;;;;;6321709;28;20040;-79
2023/01/22 04:08:30;;;;;;;24.52;18.10;;;1.40;99.90;;;;;;6319788;28;20048;-78
2023/01/22 04:11:32;;;;;;;27.92;16.15;;;1.40;99.90;;;;;;6320675;28;20052;-77
2023/01/22 04:14:33;;;;;;;27.23;16.35;;;1.40;99.90;;;;;;6320907;28;20726;-78
2023/01/22 04:17:35;;;;;;;23.38;15.40;;;1.40;99.90;;;;;;6321070;28;20048;-78
2023/01/22 04:20:37;;;;;;;35.50;16.75;;;1.30;99.90;;;;;;6321086;28;20040;-78
2023/01/22 04:23:40;;;;;;;28.50;16.95;;;1.30;99.90;;;;;;6322032;28;20536;-78
2023/01/22 04:26:41;;;;;;;24.48;15.05;;;1.30;99.90;;;;;;6321021;28;20052;-78
2023/01/22 04:29:43;;;;;;;25.63;16.25;;;1.30;99.90;;;;;;6320955;28;20073;-78
2023/01/22 04:32:45;;;;;;;24.92;15.63;;;1.40;99.90;;;;;;6320973;28;20047;-79
2023/01/22 04:35:50;;;;;;;30.30;16.70;;;1.30;99.90;;;;;;6321484;28;20051;-78
2023/01/22 04:38:53;;;;;;;30.58;15.48;;;1.30;99.90;;;;;;6320147;28;20044;-79
2023/01/22 04:41:54;;;;;;;26.48;16.25;;;1.30;99.90;;;;;;6322191;28;20048;-79
2023/01/22 04:44:56;;;;;;;28.88;15.82;;;1.30;99.90;;;;;;6319862;28;20474;-78
2023/01/22 04:47:58;;;;;;;29.33;16.95;;;1.30;99.90;;;;;;6319722;28;20055;-78
2023/01/22 04:51:00;;;;;;;30.42;15.77;;;1.40;99.90;;;;;;6320438;28;20066;-79
2023/01/22 04:54:03;;;;;;;26.48;16.67;;;1.40;99.90;;;;;;6320683;28;20520;-78
2023/01/22 04:57:05;;;;;;;30.50;15.10;;;1.40;99.90;;;;;;6310803;28;20394;-78
2023/01/22 05:00:09;;;;;;;32.10;18.15;;;1.40;99.90;;;;;;6313563;28;20520;-79
2023/01/22 05:03:11;;;;;;;26.42;15.00;;;1.40;99.90;;;;;;6323014;28;20063;-78
2023/01/22 05:06:13;;;;;;;29.80;18.17;;;1.40;99.90;;;;;;6322473;28;20047;-78
2023/01/22 05:09:16;;;;;;;26.35;16.92;;;1.40;99.90;;;;;;6322183;28;20055;-79
2023/01/22 05:12:18;;;;;;;27.10;15.05;;;1.40;99.90;;;;;;6327847;28;20048;-79
2023/01/22 05:15:19;;;;;;;29.10;16.13;;;1.40;99.90;;;;;;6328143;28;20047;-79
2023/01/22 05:18:21;;;;;;;27.48;17.27;;;1.40;99.90;;;;;;6328208;28;20048;-79
2023/01/22 05:21:23;;;;;;;26.40;16.15;;;1.40;99.90;;;;;;6328294;28;20048;-79
2023/01/22 05:24:26;;;;;;;25.35;16.27;;;1.40;99.90;;;;;;6327604;28;20052;-79
2023/01/22 05:27:28;;;;;;;26.00;17.10;;;1.40;99.90;;;;;;6327016;28;20048;-79
2023/01/22 05:30:29;;;;;;;27.25;15.23;;;1.40;99.90;;;;;;6328240;28;20052;-79
2023/01/22 05:33:31;;;;;;;28.55;17.70;;;1.30;99.90;;;;;;6328004;28;20052;-79
2023/01/22 05:36:33;;;;;;;28.98;16.77;;;1.30;99.90;;;;;;6328769;28;20040;-79
2023/01/22 05:39:36;;;;;;;29.65;16.02;;;1.30;99.90;;;;;;6326927;28;20429;-79
2023/01/22 05:42:38;;;;;;;36.53;18.55;;;1.30;99.90;;;;;;6327686;28;20366;-80
2023/01/22 05:45:40;;;;;;;26.67;16.05;;;1.40;99.90;;;;;;6328696;28;20052;-79
2023/01/22 05:48:41;;;;;;;29.00;15.93;;;1.40;99.90;;;;;;6327229;28;20044;-79
2023/01/22 05:51:43;;;;;;;29.73;16.80;;;1.40;99.90;;;;;;6327321;28;20044;-79
2023/01/22 05:54:46;;;;;;;32.63;16.33;;;1.40;99.90;;;;;;6328412;28;20043;-79
2023/01/22 05:57:48;;;;;;;36.78;17.20;;;1.40;99.90;;;;;;6328462;28;20051;-79
2023/01/22 06:00:52;;;;;;;27.00;15.48;;;1.40;99.90;;;;;;6301511;28;20189;-79
2023/01/22 06:03:54;;;;;;;30.75;17.08;;;1.40;99.90;;;;;;6301811;28;20059;-79
2023/01/22 06:06:55;;;;;;;28.20;14.52;;;1.40;99.90;;;;;;6300894;28;20568;-78
2023/01/22 06:09:58;;;;;;;33.28;17.73;;;1.50;99.90;;;;;;6301329;28;20055;-79
2023/01/22 06:13:00;;;;;;;29.02;15.73;;;1.50;99.90;;;;;;6302163;28;20048;-79
2023/01/22 06:16:02;;;;;;;32.40;16.88;;;1.50;99.90;;;;;;6301954;28;20398;-79
2023/01/22 06:19:04;;;;;;;29.52;17.27;;;1.50;99.90;;;;;;6300937;28;20718;-79
2023/01/22 06:22:05;;;;;;;28.45;16.40;;;1.50;99.90;;;;;;6301491;28;20059;-79
2023/01/22 06:25:09;;;;;;;25.58;15.48;;;1.50;99.90;;;;;;6346005;28;20047;-78
2023/01/22 06:28:11;;;;;;;28.17;16.95;;;1.60;99.90;;;;;;6347083;28;20039;-78
2023/01/22 06:31:17;;;;;;;26.92;15.77;;;1.60;99.90;;;;;;6348452;28;20054;-80
2023/01/22 06:34:26;;;;;;;24.65;15.68;;;1.60;99.90;;;;;;6352374;28;20048;-80
2023/01/22 06:37:28;;;;;;;24.80;14.90;;;1.60;99.90;;;;;;6349268;28;20062;-80
2023/01/22 06:40:31;;;;;;;24.48;16.60;;;1.60;99.90;;;;;;6338226;28;20075;-80
2023/01/22 06:43:41;;;;;;;29.35;15.23;;;1.60;99.90;;;;;;6349416;28;20054;-82
2023/01/22 06:47:13;;;;;;;23.10;14.57;;;1.60;99.90;;;;;;6340998;28;20055;-82
2023/01/22 06:53:33;;;;;;;20.10;13.13;;;1.60;99.90;;;;;;6326080;28;20445;-82
2023/01/22 06:56:39;;;;;;;24.58;13.95;;;1.60;99.90;;;;;;6342114;28;20421;-82
2023/01/22 06:59:45;;;;;;;27.60;16.60;;;1.60;99.90;;;;;;6328144;28;20098;-82
2023/01/22 07:02:55;;;;;;;25.13;12.85;;;1.60;99.90;;;;;;6324967;28;20040;-81
2023/01/22 07:06:08;;;;;;;20.65;12.63;;;1.60;99.90;;;;;;6325391;28;20044;-81
2023/01/22 07:09:24;;;;;;;19.13;13.05;;;1.60;99.90;;;;;;6321551;27;20642;-80
2023/01/22 07:12:28;;;;;;;24.00;13.70;;;1.60;99.90;;;;;;6322340;28;20066;-81
2023/01/22 07:15:55;;;;;;;23.58;13.80;;;1.60;99.90;;;;;;6323806;28;20132;-81
2023/01/22 07:18:57;;;;;;;26.73;14.80;;;1.60;99.90;;;;;;6324409;28;20040;-81
2023/01/22 07:21:59;;;;;;;22.10;13.27;;;1.60;99.90;;;;;;6326281;28;20585;-81
2023/01/22 07:28:42;;;;;;;23.92;12.82;;;1.60;99.90;;;;;;6323013;28;20497;-80
2023/01/22 07:32:05;;;;;;;22.05;15.20;;;1.60;99.90;;;;;;6324407;28;20497;-81
2023/01/22 07:35:22;;;;;;;25.83;14.10;;;1.60;99.90;;;;;;6325123;28;20571;-81
2023/01/22 07:38:45;;;;;;;22.85;13.23;;;1.60;99.90;;;;;;6315825;28;20055;-80
2023/01/22 07:42:05;;;;;;;22.38;13.02;;;1.70;99.90;;;;;;6324336;28;20158;-81
2023/01/22 07:53:04;;;;;;;26.55;16.23;;;2.40;99.90;;;;;;6327456;28;20149;-82
2023/01/22 07:59:36;;;;;;;26.52;15.00;;;2.10;99.90;;;;;;6305571;28;20095;-81
2023/01/22 08:02:56;;;;;;;26.02;13.57;;;2.00;99.90;;;;;;6316302;28;20058;-81
2023/01/22 08:05:57;;;;;;;21.52;14.82;;;2.00;99.90;;;;;;6326389;28;20040;-80
2023/01/22 08:09:02;;;;;;;26.10;15.98;;;2.00;99.90;;;;;;6324738;28;20059;-81
2023/01/22 08:12:04;;;;;;;22.80;14.32;;;2.00;99.90;;;;;;6325342;28;20481;-81
2023/01/22 08:15:07;;;;;;;28.33;15.63;;;2.00;99.90;;;;;;6325875;28;20051;-81
2023/01/22 08:18:14;;;;;;;26.90;14.90;;;2.10;99.90;;;;;;6325396;28;20044;-80
2023/01/22 08:21:19;;;;;;;25.80;15.68;;;2.30;99.90;;;;;;6323768;28;20048;-81
2023/01/22 08:24:21;;;;;;;21.10;11.70;;;2.30;99.90;;;;;;6325285;28;20502;-80
2023/01/22 08:27:23;;;;;;;19.88;13.18;;;2.40;99.90;;;;;;6323782;28;20043;-80
2023/01/22 08:30:24;;;;;;;18.23;12.30;;;2.40;99.90;;;;;;6325160;28;20056;-81
2023/01/22 08:33:36;;;;;;;18.95;13.82;;;2.40;99.90;;;;;;6326050;28;20059;-80
2023/01/22 08:36:45;;;;;;;22.33;14.57;;;2.40;99.90;;;;;;6324051;28;20040;-81
2023/01/22 08:39:46;;;;;;;25.25;12.40;;;2.30;99.90;;;;;;6321765;28;20048;-80
2023/01/22 08:42:50;;;;;;;25.65;13.02;;;2.30;99.90;;;;;;6320620;28;20444;-80
2023/01/22 08:45:52;;;;;;;18.60;13.57;;;2.30;99.90;;;;;;6323901;28;20494;-81
2023/01/22 08:48:56;;;;;;;17.58;12.18;;;2.30;99.90;;;;;;6325815;28;20508;-80
2023/01/22 08:51:58;;;;;;;23.15;15.40;;;2.30;99.90;;;;;;6325845;28;20048;-81
2023/01/22 08:55:01;;;;;;;25.25;16.20;;;2.30;99.90;;;;;;6328019;28;20051;-81
2023/01/22 08:58:03;;;;;;;51.80;42.05;;;2.30;99.90;;;;;;6327956;28;20105;-79
2023/01/22 09:01:05;;;;;;;59.65;48.25;;;2.40;99.90;;;;;;6318908;28;20067;-80
2023/01/22 09:04:10;;;;;;;68.28;59.17;;;2.40;99.90;;;;;;6319336;28;20055;-79
2023/01/22 09:07:14;;;;;;;38.38;30.23;;;2.30;99.90;;;;;;6326703;28;20051;-80
2023/01/22 09:21:17;;;;;;;13.38;11.25;;;2.30;99.90;;;;;;6261539;28;20159;-81
2023/01/22 09:24:40;;;;;;;19.75;16.23;;;2.30;99.90;;;;;;6328144;28;20044;-81
2023/01/22 09:31:36;;;;;;;18.13;13.35;;;2.20;99.90;;;;;;6325112;28;20425;-80
2023/01/22 09:39:47;;;;;;;22.52;13.27;;;2.30;99.90;;;;;;6219666;28;20128;-80
2023/01/22 09:50:57;;;;;;;20.45;13.65;;;2.30;99.90;;;;;;6237443;28;20049;-79
2023/01/22 09:54:06;;;;;;;16.98;12.60;;;2.30;99.90;;;;;;6275625;28;20132;-80
2023/01/22 09:57:12;;;;;;;32.45;21.95;;;2.30;99.90;;;;;;6313704;28;20122;-81
2023/01/22 10:00:41;;;;;;;21.30;14.38;;;2.30;99.90;;;;;;6353935;28;20048;-81
2023/01/22 10:03:59;;;;;;;22.73;15.50;;;2.30;99.90;;;;;;6318841;28;20052;-80
2023/01/22 10:07:05;;;;;;;19.70;13.45;;;2.30;99.90;;;;;;6326876;28;20048;-81
2023/01/22 10:10:23;;;;;;;17.65;13.05;;;2.40;99.90;;;;;;6330228;28;20051;-81
2023/01/22 10:13:28;;;;;;;19.77;14.35;;;2.30;99.90;;;;;;6336582;28;20044;-79
2023/01/22 10:16:31;;;;;;;17.23;11.10;;;2.40;99.90;;;;;;6351224;28;20052;-81
2023/01/22 10:19:49;;;;;;;17.65;11.55;;;2.40;99.90;;;;;;6351471;28;20051;-79
2023/01/22 10:23:00;;;;;;;21.52;14.45;;;2.40;99.90;;;;;;6345645;28;20058;-81
2023/01/22 10:26:17;;;;;;;22.13;14.90;;;2.50;99.90;;;;;;6354846;28;20085;-81
2023/01/22 10:29:28;;;;;;;24.02;11.95;;;2.50;99.90;;;;;;6352991;28;20055;-80
2023/01/22 10:32:31;;;;;;;17.63;11.75;;;2.50;99.90;;;;;;6353442;28;20625;-81
2023/01/22 10:35:50;;;;;;;26.95;20.60;;;2.60;99.90;;;;;;6354497;28;20051;-82
2023/01/22 10:42:30;;;;;;;16.85;13.20;;;2.70;99.90;;;;;;6344253;27;20077;-81
2023/01/22 10:49:16;;;;;;;15.10;12.43;;;2.60;99.90;;;;;;6306257;27;20419;-82
2023/01/22 10:52:26;;;;;;;19.33;13.88;;;2.70;99.90;;;;;;6306771;28;20421;-81
2023/01/22 10:55:33;;;;;;;19.20;13.82;;;2.70;99.90;;;;;;6315220;28;20058;-81
2023/01/22 10:58:37;;;;;;;15.88;11.63;;;2.80;99.90;;;;;;6318822;28;20071;-82
2023/01/22 11:01:59;;;;;;;17.20;10.77;;;2.80;99.90;;;;;;6316065;28;20572;-81
2023/01/22 11:05:19;;;;;;;16.52;12.32;;;2.90;99.90;;;;;;6310392;28;20063;-81
2023/01/22 11:12:24;;;;;;;24.02;21.10;;;3.00;99.90;;;;;;6302552;28;20079;-81
2023/01/22 11:15:38;;;;;;;19.00;15.40;;;3.10;99.90;;;;;;6319621;28;20040;-81
2023/01/22 11:18:42;;;;;;;17.77;13.13;;;3.10;99.90;;;;;;6326390;28;20508;-81
2023/01/22 11:21:46;;;;;;;18.20;12.73;;;3.30;99.90;;;;;;6316207;28;20074;-81
2023/01/22 11:24:49;;;;;;;20.30;11.95;;;3.40;99.90;;;;;;6314768;28;20051;-81
2023/01/22 11:28:01;;;;;;;21.85;13.60;;;3.50;99.90;;;;;;6309489;28;20040;-81
2023/01/22 11:31:23;;;;;;;16.90;11.85;;;3.90;99.90;;;;;;6301729;28;20414;-81
2023/01/22 11:34:53;;;;;;;14.65;11.57;;;4.00;99.90;;;;;;6316965;28;20048;-81
2023/01/22 11:38:17;;;;;;;15.68;10.85;;;4.00;99.90;;;;;;6326589;28;20048;-82
2023/01/22 11:41:40;;;;;;;12.45;9.13;;;3.80;99.90;;;;;;6326433;28;20040;-81
2023/01/22 11:44:55;;;;;;;16.92;10.68;;;3.60;99.90;;;;;;6338297;28;20397;-80
2023/01/22 11:48:16;;;;;;;15.88;13.35;;;3.50;99.90;;;;;;6348353;28;20047;-81
2023/01/22 11:51:28;;;;;;;13.80;10.80;;;3.40;99.90;;;;;;6348210;28;20054;-80
2023/01/22 11:54:44;;;;;;;20.30;14.40;;;3.40;99.90;;;;;;6339186;28;20059;-81
2023/01/22 11:57:55;;;;;;;14.30;10.40;;;3.30;99.90;;;;;;6318960;28;20063;-81
2023/01/22 12:01:12;;;;;;;15.93;11.88;;;3.40;99.90;;;;;;6298405;28;20520;-80
2023/01/22 12:04:33;;;;;;;12.25;9.82;;;3.40;99.90;;;;;;6304651;28;20053;-81
2023/01/22 12:08:11;;;;;;;11.02;8.38;;;3.50;99.90;;;;;;6323570;28;20044;-82
2023/01/22 12:11:33;;;;;;;11.88;8.43;;;3.60;99.90;;;;;;6320773;28;20135;-83
2023/01/22 12:14:53;;;;;;;12.10;9.38;;;3.60;99.90;;;;;;6338060;28;20508;-81
2023/01/22 12:18:09;;;;;;;11.52;7.57;;;3.60;99.90;;;;;;6348333;28;20039;-80
2023/01/22 12:21:20;;;;;;;11.35;8.75;;;3.70;99.90;;;;;;6347692;28;20510;-80
2023/01/22 12:24:27;;;;;;;13.65;9.85;;;3.80;99.90;;;;;;6349970;28;20044;-81
2023/01/22 12:27:32;;;;;;;11.10;8.82;;;3.80;99.90;;;;;;6346249;28;20051;-82
2023/01/22 12:30:44;;;;;;;13.13;10.13;;;3.80;99.90;;;;;;6350015;28;20044;-82
2023/01/22 12:33:49;;;;;;;16.92;11.25;;;3.80;99.90;;;;;;6349386;28;20048;-81
2023/01/22 12:36:53;;;;;;;14.25;10.70;;;3.90;99.90;;;;;;6347654;28;20063;-83
2023/01/22 12:40:10;;;;;;;12.68;9.73;;;4.00;99.90;;;;;;6349131;28;20054;-82
2023/01/22 12:43:12;;;;;;;9.63;8.20;;;4.10;99.90;;;;;;6346761;28;20048;-81
2023/01/22 12:46:24;;;;;;;11.70;10.23;;;4.10;99.90;;;;;;6325526;28;20055;-82
2023/01/22 12:49:39;;;;;;;13.68;8.93;;;4.20;99.90;;;;;;6324037;28;20052;-85
2023/01/22 12:52:46;;;;;;;11.05;8.75;;;4.30;99.90;;;;;;6324912;28;20052;-82
2023/01/22 13:10:57;;;;;;;9.13;7.63;;;4.30;99.90;;;;;;6310409;28;20052;-83
2023/01/22 13:14:11;;;;;;;8.43;7.40;;;4.30;99.90;;;;;;6343303;28;20070;-82
2023/01/22 13:17:19;;;;;;;9.05;7.78;;;4.20;99.90;;;;;;6327430;28;20121;-82
2023/01/22 13:20:21;;;;;;;9.18;8.23;;;4.10;99.90;;;;;;6324053;28;20040;-84
2023/01/22 13:23:27;;;;;;;14.02;7.55;;;4.00;99.90;;;;;;6324184;28;20136;-82
2023/01/22 13:26:34;;;;;;;9.52;7.15;;;4.00;99.90;;;;;;6324491;28;20036;-83
2023/01/22 13:29:38;;;;;;;10.25;7.25;;;4.00;99.90;;;;;;6324087;28;20060;-83
2023/01/22 13:32:41;;;;;;;9.48;6.93;;;4.00;99.90;;;;;;6326203;28;20052;-83
2023/01/22 13:35:44;;;;;;;8.95;7.10;;;4.00;99.90;;;;;;6328466;28;20040;-83
2023/01/22 13:38:54;;;;;;;11.23;8.15;;;4.00;99.90;;;;;;6325448;28;20050;-83
2023/01/22 13:41:58;;;;;;;10.27;7.60;;;4.00;99.90;;;;;;6326584;28;20054;-82
2023/01/22 13:45:01;;;;;;;8.10;7.25;;;4.00;99.90;;;;;;6327659;28;20051;-82
2023/01/22 13:48:04;;;;;;;9.90;8.95;;;3.90;99.90;;;;;;6326434;28;20044;-83
2023/01/22 13:51:09;;;;;;;8.50;7.32;;;4.00;99.90;;;;;;6328468;28;20494;-84
2023/01/22 13:54:20;;;;;;;13.10;9.75;;;3.90;99.90;;;;;;6329218;28;20055;-83
2023/01/22 13:57:22;;;;;;;11.82;8.57;;;3.90;99.90;;;;;;6328132;28;20059;-84
2023/01/22 14:00:27;;;;;;;10.35;7.85;;;3.90;99.90;;;;;;6330262;28;20722;-83
2023/01/22 14:03:29;;;;;;;11.73;9.70;;;3.90;99.90;;;;;;6329522;28;20055;-83
2023/01/22 14:06:42;;;;;;;11.07;8.57;;;3.90;99.90;;;;;;6330758;28;20316;-84
2023/01/22 14:09:46;;;;;;;10.75;8.18;;;3.90;99.90;;;;;;6329984;28;20042;-83
2023/01/22 14:12:59;;;;;;;13.43;9.38;;;3.90;99.90;;;;;;6319033;28;20098;-83
2023/01/22 14:16:05;;;;;;;14.10;10.07;;;3.90;99.90;;;;;;6337253;28;20116;-84
2023/01/22 14:19:07;;;;;;;9.32;8.35;;;3.90;99.90;;;;;;6351104;28;20047;-83
2023/01/22 14:22:09;;;;;;;10.73;7.45;;;3.90;99.90;;;;;;6351776;28;20052;-83
2023/01/22 14:25:12;;;;;;;11.18;8.23;;;3.80;99.90;;;;;;6351341;28;20048;-83
2023/01/22 14:28:15;;;;;;;9.93;8.75;;;3.80;99.90;;;;;;6349730;28;20048;-84
2023/01/22 14:31:17;;;;;;;13.93;9.82;;;3.70;99.90;;;;;;6349515;28;20051;-84
2023/01/22 14:34:19;;;;;;;11.70;8.75;;;3.70;99.90;;;;;;6351491;28;20058;-84
2023/01/22 14:37:21;;;;;;;9.65;8.57;;;3.70;99.90;;;;;;6348738;28;20075;-85
2023/01/22 14:40:29;;;;;;;11.05;8.15;;;3.70;99.90;;;;;;6350600;28;20051;-83
2023/01/22 14:43:31;;;;;;;12.52;9.65;;;3.60;99.90;;;;;;6346981;28;20128;-83
2023/01/22 14:46:42;;;;;;;10.38;7.68;;;3.60;99.90;;;;;;6325870;28;20051;-84
2023/01/22 14:49:57;;;;;;;10.15;7.65;;;3.60;99.90;;;;;;6324796;28;20477;-84
2023/01/22 14:52:59;;;;;;;10.98;8.88;;;3.60;99.90;;;;;;6324302;28;20055;-84
2023/01/22 14:56:51;;;;;;;10.05;8.48;;;3.50;99.90;;;;;;6325192;28;20052;-84
2023/01/22 14:59:53;;;;;;;12.85;10.52;;;3.40;99.90;;;;;;6323811;27;20044;-84
2023/01/22 15:02:55;;;;;;;20.42;18.25;;;3.50;99.90;;;;;;6327469;28;20775;-82
2023/01/22 15:05:57;;;;;;;63.38;57.15;;;3.40;99.90;;;;;;6358545;28;20050;-83
2023/01/22 15:13:08;;;;;;;14.93;13.50;;;3.40;99.90;;;;;;6184628;28;20045;-81
2023/01/22 15:47:23;;;;;;;14.23;10.20;;;3.20;99.90;;;;;;6274146;28;20411;-82
2023/01/22 15:50:25;;;;;;;11.07;8.02;;;3.20;99.90;;;;;;6275503;28;20068;-82
2023/01/22 15:53:27;;;;;;;15.15;11.57;;;3.20;99.90;;;;;;6301838;28;20138;-84
2023/01/22 15:56:32;;;;;;;14.60;10.32;;;3.10;99.90;;;;;;6291657;28;20142;-82
2023/01/22 15:59:36;;;;;;;13.68;10.70;;;3.20;99.90;;;;;;6325853;28;20048;-82
2023/01/22 16:02:39;;;;;;;12.02;9.00;;;3.10;99.90;;;;;;6325686;28;20059;-79
2023/01/22 16:05:41;;;;;;;11.10;9.52;;;3.10;99.90;;;;;;6325626;28;20079;-79
2023/01/22 16:08:44;;;;;;;12.70;10.25;;;3.10;99.90;;;;;;6308069;28;20036;-81
2023/01/22 16:11:46;;;;;;;12.77;10.55;;;3.10;99.90;;;;;;6324057;28;20048;-79
2023/01/22 16:14:47;;;;;;;12.75;10.25;;;3.10;99.90;;;;;;6340981;28;20043;-80
2023/01/22 16:17:50;;;;;;;16.92;9.48;;;3.10;99.90;;;;;;6333147;28;20040;-80
2023/01/22 16:20:52;;;;;;;11.35;8.95;;;3.10;99.90;;;;;;6326281;28;20051;-79
2023/01/22 16:23:56;;;;;;;17.55;13.40;;;3.10;99.90;;;;;;6325726;28;20043;-79
2023/01/22 16:26:57;;;;;;;78.13;51.25;;;3.10;99.90;;;;;;6326572;28;20048;-79
2023/01/22 16:29:59;;;;;;;45.35;30.77;;;3.10;99.90;;;;;;6326799;28;20409;-79
2023/01/22 16:33:17;;;;;;;78.93;58.03;;;3.10;99.90;;;;;;6325436;28;20048;-80
2023/01/22 16:36:20;;;;;;;35.90;31.98;;;3.10;99.90;;;;;;6325175;28;20040;-79
2023/01/22 16:39:24;;;;;;;29.90;26.95;;;3.10;99.90;;;;;;6324420;28;20052;-80
2023/01/22 16:42:26;;;;;;;16.27;14.38;;;3.00;99.90;;;;;;6328117;28;20462;-79
2023/01/22 16:45:28;;;;;;;19.58;10.93;;;3.10;99.90;;;;;;6338712;28;20044;-79
2023/01/22 16:48:31;;;;;;;18.80;13.98;;;3.00;99.90;;;;;;6326974;28;20060;-81
2023/01/22 16:51:35;;;;;;;14.45;11.45;;;3.00;99.90;;;;;;6317542;28;20056;-80
2023/01/22 16:54:37;;;;;;;13.60;10.35;;;3.00;99.90;;;;;;6320971;28;20421;-76
2023/01/22 16:57:39;;;;;;;14.98;12.35;;;3.00;99.90;;;;;;6323484;28;20048;-79
2023/01/22 17:00:41;;;;;;;16.63;13.05;;;3.00;99.90;;;;;;6338486;28;20048;-78
2023/01/22 17:03:44;;;;;;;17.13;12.90;;;3.00;99.90;;;;;;6351808;28;20099;-80
2023/01/22 17:06:48;;;;;;;26.48;23.67;;;3.10;99.90;;;;;;6321579;28;20032;-80
2023/01/22 17:09:52;;;;;;;24.48;21.92;;;3.10;99.90;;;;;;6327593;28;20113;-79
2023/01/22 17:12:54;;;;;;;13.85;12.07;;;3.00;99.90;;;;;;6320731;28;20044;-79
2023/01/22 17:15:55;;;;;;;16.88;15.15;;;3.00;99.90;;;;;;6347619;28;20055;-80
2023/01/22 17:18:59;;;;;;;15.27;12.52;;;3.00;99.90;;;;;;6357143;28;20047;-79
2023/01/22 17:22:02;;;;;;;19.65;12.18;;;3.00;99.90;;;;;;6356900;28;20047;-80
2023/01/22 17:25:04;;;;;;;27.27;17.05;;;3.00;99.90;;;;;;6350239;28;20040;-80
2023/01/22 17:28:07;;;;;;;18.05;12.88;;;3.00;99.90;;;;;;6332111;28;20518;-79
2023/01/22 17:31:58;;;;;;;17.75;14.30;;;3.10;99.90;;;;;;6329742;28;20043;-81
2023/01/22 17:35:01;;;;;;;18.33;13.05;;;3.10;99.90;;;;;;6334724;27;20587;-81
2023/01/22 17:38:03;;;;;;;21.55;14.18;;;3.30;99.90;;;;;;6333031;28;20044;-80
2023/01/22 17:41:07;;;;;;;39.88;34.88;;;3.40;99.90;;;;;;6332568;28;20044;-80
2023/01/22 17:44:09;;;;;;;22.83;18.40;;;3.50;99.90;;;;;;6342350;28;20044;-80
2023/01/22 17:47:11;;;;;;;23.05;16.65;;;3.50;99.90;;;;;;6358117;28;20047;-81
2023/01/22 17:50:17;;;;;;;30.02;20.38;;;3.60;99.90;;;;;;6357410;28;20104;-80
2023/01/22 17:53:19;;;;;;;17.50;12.23;;;3.50;99.90;;;;;;6354652;28;20543;-79